createdAt,value
2017-09-03T00:00:12.327Z,6.47
2017-09-03T00:02:41.176Z,6.20
2017-09-03T00:05:10.047Z,6.73
2017-09-03T00:07:38.905Z,6.30
2017-09-03T00:10:07.771Z,8.30
2017-09-03T00:12:36.638Z,6.70
2017-09-03T00:15:05.503Z,6.90
2017-09-03T00:17:34.356Z,6.07
2017-09-03T00:20:03.225Z,7.40
2017-09-03T00:22:32.080Z,11.00
2017-09-03T00:25:00.964Z,6.87
2017-09-03T00:27:29.852Z,6.70
2017-09-03T00:29:58.715Z,7.37
2017-09-03T00:32:27.579Z,7.13
2017-09-03T00:34:56.443Z,8.80
2017-09-03T00:37:25.302Z,7.50
2017-09-03T00:39:54.168Z,6.53
2017-09-03T00:42:23.031Z,6.70
2017-09-03T00:44:51.893Z,6.57
2017-09-03T00:47:20.760Z,7.30
2017-09-03T00:49:49.627Z,6.20
2017-09-03T00:52:18.513Z,7.13
2017-09-03T00:54:47.489Z,7.07
2017-09-03T00:57:16.357Z,7.40
2017-09-03T00:59:45.221Z,6.60
2017-09-03T01:02:14.105Z,5.73
2017-09-03T01:04:42.971Z,5.97
2017-09-03T01:07:11.841Z,6.70
2017-09-03T01:09:40.695Z,6.43
2017-09-03T01:12:09.574Z,5.73
2017-09-03T01:14:38.431Z,5.67
2017-09-03T01:17:07.304Z,5.47
2017-09-03T01:19:36.155Z,6.40
2017-09-03T01:22:05.033Z,6.80
2017-09-03T01:24:33.900Z,5.93
2017-09-03T01:27:02.770Z,6.97
2017-09-03T01:29:31.624Z,6.83
2017-09-03T01:32:00.521Z,7.23
2017-09-03T01:34:29.376Z,6.87
2017-09-03T01:36:58.237Z,8.67
2017-09-03T01:39:27.104Z,7.13
2017-09-03T01:41:55.973Z,7.53
2017-09-03T01:44:24.852Z,6.50
2017-09-03T01:46:53.698Z,6.57
2017-09-03T01:49:22.567Z,7.57
2017-09-03T01:51:51.424Z,7.43
2017-09-03T01:54:20.303Z,7.53
2017-09-03T01:56:49.154Z,7.80
2017-09-03T01:59:18.037Z,5.93
2017-09-03T02:01:46.908Z,6.77
2017-09-03T02:04:15.776Z,6.60
2017-09-03T02:06:44.642Z,5.23
2017-09-03T02:09:13.507Z,7.47
2017-09-03T02:11:42.355Z,6.73
2017-09-03T02:14:11.243Z,6.13
2017-09-03T02:16:40.108Z,6.90
2017-09-03T02:19:08.981Z,6.20
2017-09-03T02:21:37.850Z,6.53
2017-09-03T02:24:06.713Z,5.83
2017-09-03T02:26:35.578Z,5.87
2017-09-03T02:29:04.437Z,6.47
2017-09-03T02:31:33.307Z,6.70
2017-09-03T02:34:02.173Z,6.43
2017-09-03T02:36:31.068Z,7.10
2017-09-03T02:38:59.927Z,6.97
2017-09-03T02:41:28.805Z,9.30
2017-09-03T02:43:57.660Z,7.20
2017-09-03T02:46:26.545Z,6.90
2017-09-03T02:48:55.412Z,6.43
2017-09-03T02:51:24.271Z,6.10
2017-09-03T02:53:53.124Z,6.77
2017-09-03T02:56:22.001Z,6.37
2017-09-03T02:58:50.848Z,6.77
2017-09-03T03:01:19.735Z,5.97
2017-09-03T03:03:48.602Z,6.27
2017-09-03T03:06:17.479Z,7.60
2017-09-03T03:08:46.332Z,5.83
2017-09-03T03:11:15.209Z,7.17
2017-09-03T03:13:44.061Z,6.03
2017-09-03T03:16:12.940Z,6.80
2017-09-03T03:18:41.787Z,6.50
2017-09-03T03:21:10.660Z,7.00
2017-09-03T03:23:39.526Z,7.53
2017-09-03T03:26:08.396Z,7.07
2017-09-03T03:28:37.274Z,6.23
2017-09-03T03:31:06.136Z,7.60
2017-09-03T03:33:35.005Z,8.60
2017-09-03T03:36:03.864Z,6.80
2017-09-03T03:38:32.749Z,7.60
2017-09-03T03:41:01.599Z,7.03
2017-09-03T03:43:30.482Z,7.60
2017-09-03T03:45:59.345Z,8.53
2017-09-03T03:48:28.227Z,9.63
2017-09-03T03:50:57.072Z,7.90
2017-09-03T03:53:25.949Z,7.13
2017-09-03T03:55:54.813Z,8.23
2017-09-03T03:58:23.688Z,9.57
2017-09-03T04:00:52.545Z,9.70
2017-09-03T04:03:21.426Z,12.37
2017-09-03T04:05:50.280Z,10.53
2017-09-03T04:08:19.161Z,10.13
2017-09-03T04:10:48.015Z,11.00
2017-09-03T04:13:16.902Z,11.77
2017-09-03T04:15:45.763Z,10.50
2017-09-03T04:18:14.641Z,8.50
2017-09-03T04:20:43.487Z,7.53
2017-09-03T04:23:12.378Z,7.73
2017-09-03T04:25:41.228Z,7.87
2017-09-03T04:28:10.100Z,8.20
2017-09-03T04:30:38.965Z,8.83
2017-09-03T04:33:07.836Z,8.80
2017-09-03T04:35:36.697Z,9.60
2017-09-03T04:38:05.558Z,8.43
2017-09-03T04:40:34.427Z,9.07
2017-09-03T04:43:03.293Z,9.40
2017-09-03T04:45:32.167Z,9.77
2017-09-03T04:48:01.029Z,8.93
2017-09-03T04:50:29.906Z,8.53
2017-09-03T04:52:58.755Z,10.03
2017-09-03T04:55:27.633Z,7.67
2017-09-03T04:57:56.489Z,7.40
2017-09-03T05:00:25.389Z,9.57
2017-09-03T05:02:54.266Z,6.73
2017-09-03T05:05:23.153Z,7.53
2017-09-03T05:07:52.003Z,9.67
2017-09-03T05:10:20.882Z,8.70
2017-09-03T05:12:49.732Z,7.80
2017-09-03T05:15:18.603Z,7.07
2017-09-03T05:17:47.456Z,7.27
2017-09-03T05:20:16.319Z,7.83
2017-09-03T05:22:45.175Z,6.17
2017-09-03T05:25:14.045Z,7.27
2017-09-03T05:27:42.896Z,7.20
2017-09-03T05:30:11.781Z,5.97
2017-09-03T05:32:40.631Z,7.40
2017-09-03T05:35:09.506Z,7.20
2017-09-03T05:37:38.369Z,6.90
2017-09-03T05:40:07.253Z,6.53
2017-09-03T05:42:36.103Z,6.07
2017-09-03T05:45:04.973Z,6.83
2017-09-03T05:47:33.837Z,6.83
2017-09-03T05:50:02.705Z,7.23
2017-09-03T05:52:31.574Z,8.60
2017-09-03T05:55:00.512Z,8.23
2017-09-03T05:57:29.407Z,10.90
2017-09-03T05:59:58.269Z,9.00
2017-09-03T06:02:27.144Z,10.60
2017-09-03T06:04:55.991Z,10.60
2017-09-03T06:07:24.859Z,8.97
2017-09-03T06:09:53.708Z,9.50
2017-09-03T06:12:22.598Z,8.77
2017-09-03T06:14:51.461Z,9.37
2017-09-03T06:17:20.327Z,9.67
2017-09-03T06:19:49.193Z,9.07
2017-09-03T06:22:18.078Z,9.03
2017-09-03T06:24:46.927Z,7.90
2017-09-03T06:27:15.814Z,8.03
2017-09-03T06:29:43.341Z,9.70
2017-09-03T06:32:11.642Z,9.57
2017-09-03T06:34:39.149Z,9.50
2017-09-03T06:37:06.679Z,9.73
2017-09-03T06:39:34.198Z,8.90
2017-09-03T06:42:01.738Z,9.70
2017-09-03T06:44:30.233Z,7.40
2017-09-03T06:46:57.749Z,7.60
2017-09-03T06:49:25.284Z,8.17
2017-09-03T06:51:52.788Z,8.17
2017-09-03T06:54:20.318Z,7.63
2017-09-03T06:56:47.824Z,6.87
2017-09-03T06:59:15.361Z,6.40
2017-09-03T07:01:42.865Z,6.30
2017-09-03T07:04:10.476Z,5.60
2017-09-03T07:06:37.998Z,6.40
2017-09-03T07:09:05.520Z,5.20
2017-09-03T07:11:33.042Z,6.07
2017-09-03T07:14:00.563Z,5.40
2017-09-03T07:16:28.077Z,6.27
2017-09-03T07:18:55.601Z,6.90
2017-09-03T07:21:23.119Z,5.33
2017-09-03T07:23:50.657Z,5.90
2017-09-03T07:26:18.160Z,5.27
2017-09-03T07:28:45.693Z,6.20
2017-09-03T07:31:13.975Z,5.50
2017-09-03T07:33:41.500Z,5.57
2017-09-03T07:36:09.025Z,6.23
2017-09-03T07:38:36.558Z,4.60
2017-09-03T07:41:04.844Z,5.27
2017-09-03T07:43:33.148Z,4.90
2017-09-03T07:46:00.687Z,6.10
2017-09-03T07:48:28.235Z,5.77
2017-09-03T07:50:55.745Z,4.80
2017-09-03T07:53:23.262Z,4.47
2017-09-03T07:55:50.785Z,4.30
2017-09-03T07:58:18.319Z,3.75
2017-09-03T08:00:45.861Z,3.33
2017-09-03T08:03:13.387Z,4.43
2017-09-03T08:05:42.260Z,4.22
2017-09-03T08:08:09.778Z,3.70
2017-09-03T08:10:37.317Z,6.25
2017-09-03T08:13:04.840Z,3.83
2017-09-03T08:15:32.369Z,4.95
2017-09-03T08:17:59.889Z,3.67
2017-09-03T08:20:27.411Z,2.87
2017-09-03T08:22:54.931Z,3.35
2017-09-03T08:25:22.470Z,3.25
2017-09-03T08:27:49.987Z,3.97
2017-09-03T08:30:17.543Z,3.05
2017-09-03T08:32:45.047Z,2.85
2017-09-03T08:35:12.578Z,3.08
2017-09-03T08:37:40.096Z,3.10
2017-09-03T08:40:07.640Z,3.42
2017-09-03T08:42:35.158Z,3.42
2017-09-03T08:45:02.695Z,4.72
2017-09-03T08:47:30.213Z,8.35
2017-09-03T08:49:57.731Z,2.20
2017-09-03T08:52:25.236Z,3.15
2017-09-03T08:54:52.754Z,2.55
2017-09-03T08:57:20.263Z,2.70
2017-09-03T08:59:47.798Z,2.58
2017-09-03T09:02:16.659Z,6.07
2017-09-03T09:04:44.178Z,5.32
2017-09-03T09:07:11.723Z,5.30
2017-09-03T09:09:40.592Z,3.28
2017-09-03T09:12:09.456Z,4.82
2017-09-03T09:14:38.312Z,5.97
2017-09-03T09:17:07.189Z,4.47
2017-09-03T09:19:36.062Z,2.87
2017-09-03T09:22:04.936Z,5.03
2017-09-03T09:24:33.798Z,3.33
2017-09-03T09:27:02.683Z,2.70
2017-09-03T09:29:31.539Z,3.47
2017-09-03T09:32:00.408Z,3.60
2017-09-03T09:34:29.293Z,3.63
2017-09-03T09:36:58.168Z,3.60
2017-09-03T09:39:27.026Z,1.80
2017-09-03T09:41:55.901Z,2.17
2017-09-03T09:44:25.242Z,2.53
2017-09-03T09:46:54.148Z,5.43
2017-09-03T09:49:23.018Z,3.80
2017-09-03T09:51:50.553Z,2.20
2017-09-03T09:54:18.074Z,2.03
2017-09-03T09:56:45.626Z,2.37
2017-09-03T09:59:13.936Z,2.90
2017-09-03T10:01:41.460Z,4.10
2017-09-03T10:04:08.959Z,2.97
2017-09-03T10:06:37.865Z,2.50
2017-09-03T10:09:06.739Z,2.57
2017-09-03T10:11:35.604Z,1.53
2017-09-03T10:14:04.485Z,1.83
2017-09-03T10:16:33.357Z,2.70
2017-09-03T10:19:02.239Z,2.47
2017-09-03T10:21:31.091Z,2.10
2017-09-03T10:23:59.976Z,2.67
2017-09-03T10:26:28.841Z,1.90
2017-09-03T10:28:57.703Z,2.47
2017-09-03T10:31:26.562Z,4.27
2017-09-03T10:33:55.446Z,3.27
2017-09-03T10:36:22.961Z,3.70
2017-09-03T10:38:50.481Z,2.35
2017-09-03T10:41:19.345Z,2.87
2017-09-03T10:43:48.241Z,3.55
2017-09-03T10:46:17.110Z,2.85
2017-09-03T10:48:44.636Z,2.22
2017-09-03T10:51:13.501Z,2.30
2017-09-03T10:53:42.363Z,2.87
2017-09-03T10:56:11.231Z,5.13
2017-09-03T10:58:40.099Z,3.00
2017-09-03T11:01:08.963Z,2.90
2017-09-03T11:03:37.870Z,4.33
2017-09-03T11:06:06.729Z,5.30
2017-09-03T11:08:35.615Z,6.70
2017-09-03T11:11:04.473Z,4.10
2017-09-03T11:13:33.349Z,5.73
2017-09-03T11:16:03.048Z,2.73
2017-09-03T11:18:31.904Z,3.07
2017-09-03T11:21:00.794Z,3.97
2017-09-03T11:23:28.313Z,3.77
2017-09-03T11:25:55.859Z,3.50
2017-09-03T11:28:23.507Z,2.53
2017-09-03T11:30:51.035Z,2.65
2017-09-03T11:33:19.343Z,2.72
2017-09-03T11:35:46.882Z,3.65
2017-09-03T11:38:14.405Z,5.40
2017-09-03T11:40:41.941Z,4.05
2017-09-03T11:43:09.468Z,23.70
2017-09-03T11:45:37.010Z,3.00
2017-09-03T11:48:05.422Z,5.22
2017-09-03T11:50:32.953Z,4.55
2017-09-03T11:53:00.465Z,3.70
2017-09-03T11:55:28.001Z,1.95
2017-09-03T11:57:55.526Z,3.92
2017-09-03T12:00:23.067Z,2.35
2017-09-03T12:02:51.923Z,2.85
2017-09-03T12:05:19.835Z,2.53
2017-09-03T12:07:47.344Z,1.60
2017-09-03T12:10:14.934Z,1.90
2017-09-03T12:12:42.432Z,2.45
2017-09-03T12:15:09.946Z,2.30
2017-09-03T12:17:37.479Z,6.20
2017-09-03T12:20:05.011Z,4.43
2017-09-03T12:22:33.300Z,2.28
2017-09-03T12:25:02.165Z,2.70
2017-09-03T12:27:31.035Z,3.35
2017-09-03T12:29:59.887Z,2.60
2017-09-03T12:32:28.781Z,3.60
2017-09-03T12:34:56.698Z,2.72
2017-09-03T12:37:24.224Z,2.67
2017-09-03T12:39:51.737Z,2.53
2017-09-03T12:42:20.617Z,2.33
2017-09-03T12:44:49.480Z,2.55
2017-09-03T12:47:18.443Z,2.50
2017-09-03T12:49:47.312Z,2.30
2017-09-03T12:52:16.189Z,2.67
2017-09-03T12:54:45.045Z,1.73
2017-09-03T12:57:13.911Z,2.07
2017-09-03T12:59:42.759Z,3.20
2017-09-03T13:02:11.636Z,2.60
2017-09-03T13:04:40.488Z,3.30
2017-09-03T13:07:09.356Z,2.13
2017-09-03T13:09:38.232Z,1.90
2017-09-03T13:12:07.099Z,2.53
2017-09-03T13:14:35.956Z,1.60
2017-09-03T13:17:04.838Z,1.87
2017-09-03T13:19:33.689Z,1.50
2017-09-03T13:22:02.580Z,5.47
2017-09-03T13:24:31.441Z,4.10
2017-09-03T13:27:00.319Z,2.10
2017-09-03T13:29:29.238Z,2.30
2017-09-03T13:31:58.093Z,2.50
2017-09-03T13:34:26.963Z,3.07
2017-09-03T13:36:54.479Z,2.53
2017-09-03T13:39:22.021Z,2.20
2017-09-03T13:41:50.885Z,3.40
2017-09-03T13:44:18.421Z,3.97
2017-09-03T13:46:45.927Z,2.30
2017-09-03T13:49:13.448Z,4.10
2017-09-03T13:51:40.969Z,7.00
2017-09-03T13:54:08.488Z,3.37
2017-09-03T13:56:36.005Z,2.57
2017-09-03T13:59:03.536Z,4.40
2017-09-03T14:01:31.053Z,3.57
2017-09-03T14:03:59.923Z,2.97
2017-09-03T14:06:28.780Z,2.17
2017-09-03T14:08:57.757Z,4.53
2017-09-03T14:11:26.608Z,2.93
2017-09-03T14:13:55.476Z,1.33
2017-09-03T14:16:24.330Z,1.93
2017-09-03T14:18:53.231Z,2.83
2017-09-03T14:21:22.097Z,2.90
2017-09-03T14:23:51.086Z,2.33
2017-09-03T14:26:19.935Z,3.17
2017-09-03T14:28:48.870Z,2.57
2017-09-03T14:31:17.728Z,1.97
2017-09-03T14:33:46.635Z,2.60
2017-09-03T14:36:15.501Z,2.23
2017-09-03T14:38:44.356Z,2.53
2017-09-03T14:41:13.230Z,3.10
2017-09-03T14:43:42.118Z,3.10
2017-09-03T14:46:10.994Z,2.30
2017-09-03T14:48:39.857Z,3.60
2017-09-03T14:51:08.741Z,3.93
2017-09-03T14:53:37.604Z,4.43
2017-09-03T14:56:06.495Z,3.43
2017-09-03T14:58:35.375Z,3.07
2017-09-03T15:01:04.255Z,2.40
2017-09-03T15:03:33.126Z,5.30
2017-09-03T15:06:01.991Z,3.77
2017-09-03T15:08:30.861Z,2.13
2017-09-03T15:10:59.746Z,2.63
2017-09-03T15:13:28.612Z,1.90
2017-09-03T15:15:57.488Z,5.60
2017-09-03T15:18:26.344Z,2.20
2017-09-03T15:20:55.225Z,3.00
2017-09-03T15:23:24.083Z,2.97
2017-09-03T15:25:52.967Z,3.97
2017-09-03T15:28:21.816Z,6.03
2017-09-03T15:30:50.691Z,4.07
2017-09-03T15:33:19.541Z,3.47
2017-09-03T15:35:48.421Z,2.77
2017-09-03T15:38:17.292Z,4.53
2017-09-03T15:40:46.153Z,3.20
2017-09-03T15:43:15.042Z,2.90
2017-09-03T15:45:43.908Z,3.67
2017-09-03T15:48:12.791Z,2.80
2017-09-03T15:50:41.648Z,3.03
2017-09-03T15:53:10.535Z,6.80
2017-09-03T15:55:39.386Z,4.03
2017-09-03T15:58:08.264Z,3.07
2017-09-03T16:00:37.112Z,5.37
2017-09-03T16:03:05.998Z,3.80
2017-09-03T16:05:34.847Z,2.90
2017-09-03T16:08:03.721Z,1.93
2017-09-03T16:10:32.573Z,3.30
2017-09-03T16:13:01.462Z,2.50
2017-09-03T16:15:30.307Z,2.50
2017-09-03T16:17:59.189Z,2.27
2017-09-03T16:20:28.055Z,3.40
2017-09-03T16:22:56.937Z,3.20
2017-09-03T16:25:25.793Z,3.20
2017-09-03T16:27:54.660Z,2.67
2017-09-03T16:30:23.520Z,2.50
2017-09-03T16:32:52.406Z,3.50
2017-09-03T16:35:21.278Z,4.17
2017-09-03T16:37:50.143Z,3.60
2017-09-03T16:40:19.001Z,3.93
2017-09-03T16:42:47.878Z,3.67
2017-09-03T16:45:16.749Z,3.50
2017-09-03T16:47:45.632Z,2.70
2017-09-03T16:50:14.501Z,3.00
2017-09-03T16:52:43.381Z,2.63
2017-09-03T16:55:12.254Z,4.77
2017-09-03T16:57:41.138Z,4.63
2017-09-03T17:00:09.987Z,4.93
2017-09-03T17:02:38.859Z,3.83
2017-09-03T17:05:07.724Z,3.53
2017-09-03T17:07:36.610Z,6.53
2017-09-03T17:10:05.467Z,4.50
2017-09-03T17:12:34.345Z,8.70
2017-09-03T17:15:03.210Z,4.53
2017-09-03T17:17:32.084Z,6.07
2017-09-03T17:20:02.441Z,4.87
2017-09-03T17:22:31.325Z,4.90
2017-09-03T17:25:00.189Z,4.47
2017-09-03T17:27:29.069Z,4.27
2017-09-03T17:29:59.706Z,5.13
2017-09-03T17:32:28.601Z,8.47
2017-09-03T17:35:00.017Z,4.03
2017-09-03T17:37:28.910Z,4.40
2017-09-03T17:39:58.199Z,4.23
2017-09-03T17:42:41.964Z,6.33
2017-09-03T17:45:10.833Z,5.77
2017-09-03T17:47:39.717Z,6.87
2017-09-03T17:50:08.590Z,3.93
2017-09-03T17:52:37.481Z,5.27
2017-09-03T17:55:06.335Z,5.60
2017-09-03T17:57:35.192Z,5.10
2017-09-03T18:00:04.075Z,6.40
2017-09-03T18:02:32.941Z,7.63
2017-09-03T18:05:01.820Z,6.23
2017-09-03T18:07:30.687Z,6.40
2017-09-03T18:09:59.575Z,10.30
2017-09-03T18:12:28.451Z,6.27
2017-09-03T18:14:57.326Z,6.23
2017-09-03T18:17:26.179Z,5.43
2017-09-03T18:19:55.066Z,6.53
2017-09-03T18:22:23.918Z,5.70
2017-09-03T18:24:52.793Z,6.67
2017-09-03T18:27:21.657Z,10.77
2017-09-03T18:29:53.440Z,10.70
2017-09-03T18:32:22.287Z,9.27
2017-09-03T18:34:51.153Z,8.13
2017-09-03T18:37:24.797Z,8.63
2017-09-03T18:40:11.353Z,8.03
2017-09-03T18:42:44.882Z,9.63
2017-09-03T18:45:13.759Z,10.27
2017-09-03T18:47:42.628Z,11.57
2017-09-03T18:50:15.408Z,7.67
2017-09-03T18:52:47.953Z,8.40
2017-09-03T18:55:16.833Z,8.37
2017-09-03T18:57:48.342Z,7.07
2017-09-03T19:00:17.239Z,8.87
2017-09-03T19:03:00.969Z,8.30
2017-09-03T19:05:33.605Z,6.13
2017-09-03T19:08:02.473Z,5.73
2017-09-03T19:10:31.344Z,10.40
2017-09-03T19:13:00.201Z,6.43
2017-09-03T19:15:29.099Z,5.70
2017-09-03T19:17:57.958Z,9.40
2017-09-03T19:20:26.836Z,8.10
2017-09-03T19:22:55.688Z,7.43
2017-09-03T19:25:24.565Z,7.40
2017-09-03T19:27:53.428Z,6.57
2017-09-03T19:30:22.316Z,6.43
2017-09-03T19:32:51.171Z,6.80
2017-09-03T19:35:20.053Z,6.40
2017-09-03T19:37:49.681Z,8.77
2017-09-03T19:40:18.566Z,8.23
2017-09-03T19:42:47.437Z,8.23
2017-09-03T19:45:16.312Z,7.53
2017-09-03T19:47:45.177Z,8.30
2017-09-03T19:50:14.043Z,8.23
2017-09-03T19:52:42.901Z,8.77
2017-09-03T19:55:11.778Z,8.50
2017-09-03T19:57:40.663Z,8.80
2017-09-03T20:00:09.541Z,8.00
2017-09-03T20:02:38.401Z,7.77
2017-09-03T20:05:07.281Z,7.40
2017-09-03T20:07:36.139Z,7.53
2017-09-03T20:10:05.013Z,7.60
2017-09-03T20:12:33.867Z,6.63
2017-09-03T20:15:02.735Z,6.53
2017-09-03T20:17:31.590Z,6.10
2017-09-03T20:20:00.455Z,6.90
2017-09-03T20:22:29.313Z,5.90
2017-09-03T20:24:58.184Z,8.73
2017-09-03T20:27:27.039Z,5.40
2017-09-03T20:29:55.924Z,6.20
2017-09-03T20:32:24.786Z,6.00
2017-09-03T20:34:53.670Z,6.20
2017-09-03T20:37:22.546Z,6.73
2017-09-03T20:39:51.433Z,7.70
2017-09-03T20:42:20.288Z,7.80
2017-09-03T20:44:49.180Z,6.40
2017-09-03T20:47:18.028Z,6.47
2017-09-03T20:49:46.906Z,6.53
2017-09-03T20:52:15.763Z,5.83
2017-09-03T20:54:44.656Z,6.63
2017-09-03T20:57:13.507Z,6.03
2017-09-03T20:59:42.380Z,7.00
2017-09-03T21:02:11.241Z,5.10
2017-09-03T21:04:40.135Z,6.67
2017-09-03T21:07:08.997Z,5.10
2017-09-03T21:09:37.856Z,5.50
2017-09-03T21:12:06.739Z,5.87
2017-09-03T21:14:35.596Z,5.70
2017-09-03T21:17:04.469Z,5.53
2017-09-03T21:19:33.330Z,4.67
2017-09-03T21:22:02.210Z,6.23
2017-09-03T21:24:31.073Z,5.50
2017-09-03T21:26:59.960Z,5.63
2017-09-03T21:29:28.831Z,5.30
2017-09-03T21:31:57.713Z,7.30
2017-09-03T21:34:26.585Z,6.63
2017-09-03T21:36:55.465Z,6.30
2017-09-03T21:39:24.958Z,5.50
2017-09-03T21:41:53.839Z,7.40
2017-09-03T21:44:22.701Z,6.17
2017-09-03T21:46:51.575Z,5.97
2017-09-03T21:49:20.447Z,7.07
2017-09-03T21:51:49.331Z,8.87
2017-09-03T21:54:18.190Z,8.90
2017-09-03T21:56:47.083Z,7.73
2017-09-03T21:59:15.980Z,7.70
2017-09-03T22:01:44.847Z,7.63
2017-09-03T22:04:13.730Z,6.37
2017-09-03T22:06:42.610Z,6.80
2017-09-03T22:09:11.473Z,7.37
2017-09-03T22:11:40.336Z,7.60
2017-09-03T22:14:09.206Z,8.77
2017-09-03T22:16:38.080Z,6.07
2017-09-03T22:19:06.931Z,6.50
2017-09-03T22:21:35.801Z,7.70
2017-09-03T22:24:04.664Z,5.47
2017-09-03T22:26:33.537Z,5.40
2017-09-03T22:29:02.400Z,5.80
2017-09-03T22:31:31.277Z,5.40
2017-09-03T22:34:00.159Z,4.83
2017-09-03T22:36:29.059Z,5.47
2017-09-03T22:38:57.932Z,7.00
2017-09-03T22:41:27.379Z,5.73
2017-09-03T22:43:56.251Z,5.30
2017-09-03T22:46:25.126Z,5.23
2017-09-03T22:48:54.656Z,5.33
2017-09-03T22:51:23.536Z,5.93
2017-09-03T22:56:19.465Z,5.00
2017-09-03T22:58:48.337Z,5.50
2017-09-03T23:01:17.217Z,4.50
2017-09-03T23:03:46.068Z,4.30
2017-09-03T23:06:14.964Z,5.10
2017-09-03T23:08:43.811Z,4.90
2017-09-03T23:11:12.681Z,4.23
2017-09-03T23:13:41.557Z,3.87
2017-09-03T23:16:10.453Z,4.90
2017-09-03T23:18:39.320Z,5.70
2017-09-03T23:21:08.171Z,4.93
2017-09-03T23:23:37.052Z,4.93
2017-09-03T23:26:05.912Z,5.00
2017-09-03T23:28:34.842Z,4.77
2017-09-03T23:31:03.697Z,4.83
2017-09-03T23:33:32.567Z,4.53
2017-09-03T23:36:01.438Z,4.70
2017-09-03T23:38:30.321Z,4.97
2017-09-03T23:40:59.193Z,4.20
2017-09-03T23:43:28.077Z,4.10
2017-09-03T23:45:56.927Z,7.60
2017-09-03T23:48:25.811Z,6.83
2017-09-03T23:50:54.659Z,5.80
2017-09-03T23:53:23.543Z,6.47
2017-09-03T23:55:52.399Z,6.23
2017-09-03T23:58:22.148Z,6.23
